sensor_id;sensor_type;location;lat;lon;timestamp;P1;durP1;ratioP1;P2;durP2;ratioP2
7613;SDS011;3848;42.016;23.098;2022-11-20T00:01:03;50.97;;;48.07;;
7613;SDS011;3848;42.016;23.098;2022-11-20T00:03:31;50.40;;;47.50;;
7613;SDS011;3848;42.016;23.098;2022-11-20T00:05:59;50.80;;;47.93;;
7613;SDS011;3848;42.016;23.098;2022-11-20T00:08:26;47.93;;;44.67;;
7613;SDS011;3848;42.016;23.098;2022-11-20T00:10:54;48.03;;;45.50;;
7613;SDS011;3848;42.016;23.098;2022-11-20T00:13:21;49.60;;;46.97;;
7613;SDS011;3848;42.016;23.098;2022-11-20T00:15:48;49.40;;;46.60;;
7613;SDS011;3848;42.016;23.098;2022-11-20T00:18:14;51.70;;;48.53;;
7613;SDS011;3848;42.016;23.098;2022-11-20T00:20:41;49.40;;;46.80;;
7613;SDS011;3848;42.016;23.098;2022-11-20T00:23:08;51.80;;;48.90;;
7613;SDS011;3848;42.016;23.098;2022-11-20T00:25:35;51.10;;;48.43;;
7613;SDS011;3848;42.016;23.098;2022-11-20T00:28:03;54.03;;;50.47;;
7613;SDS011;3848;42.016;23.098;2022-11-20T00:30:30;49.17;;;46.47;;
7613;SDS011;3848;42.016;23.098;2022-11-20T00:32:56;49.83;;;47.00;;
7613;SDS011;3848;42.016;23.098;2022-11-20T00:35:23;52.20;;;49.23;;
7613;SDS011;3848;42.016;23.098;2022-11-20T00:37:50;50.77;;;47.90;;
7613;SDS011;3848;42.016;23.098;2022-11-20T00:40:17;50.70;;;47.80;;
7613;SDS011;3848;42.016;23.098;2022-11-20T00:42:44;49.33;;;46.37;;
7613;SDS011;3848;42.016;23.098;2022-11-20T00:45:12;50.70;;;47.53;;
7613;SDS011;3848;42.016;23.098;2022-11-20T00:47:39;49.80;;;46.80;;
7613;SDS011;3848;42.016;23.098;2022-11-20T00:50:06;49.67;;;46.40;;
7613;SDS011;3848;42.016;23.098;2022-11-20T00:52:33;50.00;;;47.17;;
7613;SDS011;3848;42.016;23.098;2022-11-20T00:55:00;51.17;;;48.23;;
7613;SDS011;3848;42.016;23.098;2022-11-20T00:57:26;51.07;;;48.13;;
7613;SDS011;3848;42.016;23.098;2022-11-20T00:59:53;49.17;;;46.37;;
7613;SDS011;3848;42.016;23.098;2022-11-20T01:02:22;52.03;;;48.93;;
7613;SDS011;3848;42.016;23.098;2022-11-20T01:04:48;50.00;;;47.30;;
7613;SDS011;3848;42.016;23.098;2022-11-20T01:07:15;48.10;;;45.60;;
7613;SDS011;3848;42.016;23.098;2022-11-20T01:09:42;51.97;;;49.17;;
7613;SDS011;3848;42.016;23.098;2022-11-20T01:12:08;52.13;;;48.97;;
7613;SDS011;3848;42.016;23.098;2022-11-20T01:14:35;51.60;;;48.67;;
7613;SDS011;3848;42.016;23.098;2022-11-20T01:17:02;51.93;;;48.63;;
7613;SDS011;3848;42.016;23.098;2022-11-20T01:19:31;50.87;;;48.13;;
7613;SDS011;3848;42.016;23.098;2022-11-20T01:21:57;50.77;;;47.33;;
7613;SDS011;3848;42.016;23.098;2022-11-20T01:24:24;49.43;;;46.53;;
7613;SDS011;3848;42.016;23.098;2022-11-20T01:26:51;49.23;;;46.43;;
7613;SDS011;3848;42.016;23.098;2022-11-20T01:29:19;49.60;;;46.87;;
7613;SDS011;3848;42.016;23.098;2022-11-20T01:31:47;51.67;;;48.43;;
7613;SDS011;3848;42.016;23.098;2022-11-20T01:34:14;48.43;;;45.27;;
7613;SDS011;3848;42.016;23.098;2022-11-20T01:36:44;48.40;;;45.80;;
7613;SDS011;3848;42.016;23.098;2022-11-20T01:39:12;47.40;;;44.70;;
7613;SDS011;3848;42.016;23.098;2022-11-20T01:41:41;46.87;;;44.20;;
7613;SDS011;3848;42.016;23.098;2022-11-20T01:47:26;43.37;;;40.97;;
7613;SDS011;3848;42.016;23.098;2022-11-20T01:49:58;45.10;;;42.67;;
7613;SDS011;3848;42.016;23.098;2022-11-20T01:52:32;44.53;;;42.03;;
7613;SDS011;3848;42.016;23.098;2022-11-20T01:55:04;45.80;;;42.97;;
7613;SDS011;3848;42.016;23.098;2022-11-20T01:57:34;44.10;;;41.77;;
7613;SDS011;3848;42.016;23.098;2022-11-20T02:00:04;43.90;;;41.60;;
7613;SDS011;3848;42.016;23.098;2022-11-20T02:02:35;44.87;;;42.20;;
7613;SDS011;3848;42.016;23.098;2022-11-20T02:05:04;44.67;;;42.00;;
7613;SDS011;3848;42.016;23.098;2022-11-20T02:07:42;45.17;;;42.67;;
7613;SDS011;3848;42.016;23.098;2022-11-20T02:10:09;46.57;;;43.70;;
7613;SDS011;3848;42.016;23.098;2022-11-20T02:12:37;44.50;;;42.20;;
7613;SDS011;3848;42.016;23.098;2022-11-20T02:15:21;45.67;;;43.07;;
7613;SDS011;3848;42.016;23.098;2022-11-20T02:17:48;45.43;;;42.70;;
7613;SDS011;3848;42.016;23.098;2022-11-20T02:20:15;44.23;;;41.87;;
7613;SDS011;3848;42.016;23.098;2022-11-20T02:22:45;41.70;;;39.50;;
7613;SDS011;3848;42.016;23.098;2022-11-20T02:25:18;43.30;;;41.00;;
7613;SDS011;3848;42.016;23.098;2022-11-20T02:27:46;43.37;;;40.97;;
7613;SDS011;3848;42.016;23.098;2022-11-20T02:30:13;45.53;;;42.83;;
7613;SDS011;3848;42.016;23.098;2022-11-20T02:32:39;43.37;;;40.97;;
7613;SDS011;3848;42.016;23.098;2022-11-20T02:35:07;42.30;;;40.07;;
7613;SDS011;3848;42.016;23.098;2022-11-20T02:37:36;41.33;;;38.80;;
7613;SDS011;3848;42.016;23.098;2022-11-20T02:40:05;40.97;;;38.80;;
7613;SDS011;3848;42.016;23.098;2022-11-20T02:42:34;41.80;;;39.40;;
7613;SDS011;3848;42.016;23.098;2022-11-20T02:45:01;41.27;;;39.07;;
7613;SDS011;3848;42.016;23.098;2022-11-20T02:47:28;40.47;;;38.33;;
7613;SDS011;3848;42.016;23.098;2022-11-20T02:49:55;40.73;;;38.43;;
7613;SDS011;3848;42.016;23.098;2022-11-20T02:52:22;39.90;;;37.83;;
7613;SDS011;3848;42.016;23.098;2022-11-20T02:54:49;42.60;;;40.20;;
7613;SDS011;3848;42.016;23.098;2022-11-20T02:57:16;41.70;;;39.43;;
7613;SDS011;3848;42.016;23.098;2022-11-20T02:59:44;42.70;;;40.37;;
7613;SDS011;3848;42.016;23.098;2022-11-20T03:02:11;40.83;;;38.70;;
7613;SDS011;3848;42.016;23.098;2022-11-20T03:04:38;41.07;;;38.77;;
7613;SDS011;3848;42.016;23.098;2022-11-20T03:07:05;41.07;;;38.67;;
7613;SDS011;3848;42.016;23.098;2022-11-20T03:09:31;40.77;;;38.50;;
7613;SDS011;3848;42.016;23.098;2022-11-20T03:11:58;41.93;;;39.63;;
7613;SDS011;3848;42.016;23.098;2022-11-20T03:14:25;40.57;;;38.10;;
7613;SDS011;3848;42.016;23.098;2022-11-20T03:16:53;40.07;;;37.87;;
7613;SDS011;3848;42.016;23.098;2022-11-20T03:19:20;39.30;;;37.30;;
7613;SDS011;3848;42.016;23.098;2022-11-20T03:21:47;42.17;;;39.70;;
7613;SDS011;3848;42.016;23.098;2022-11-20T03:24:13;42.20;;;40.00;;
7613;SDS011;3848;42.016;23.098;2022-11-20T03:26:40;41.83;;;39.60;;
7613;SDS011;3848;42.016;23.098;2022-11-20T03:29:07;42.00;;;39.37;;
7613;SDS011;3848;42.016;23.098;2022-11-20T03:31:35;44.60;;;42.00;;
7613;SDS011;3848;42.016;23.098;2022-11-20T03:34:07;44.07;;;41.40;;
7613;SDS011;3848;42.016;23.098;2022-11-20T03:36:34;45.37;;;42.77;;
7613;SDS011;3848;42.016;23.098;2022-11-20T03:39:03;43.17;;;40.87;;
7613;SDS011;3848;42.016;23.098;2022-11-20T03:41:31;43.03;;;40.70;;
7613;SDS011;3848;42.016;23.098;2022-11-20T03:44:02;43.43;;;41.10;;
7613;SDS011;3848;42.016;23.098;2022-11-20T03:46:30;42.23;;;39.97;;
7613;SDS011;3848;42.016;23.098;2022-11-20T03:48:57;43.37;;;41.03;;
7613;SDS011;3848;42.016;23.098;2022-11-20T03:51:26;43.53;;;41.23;;
7613;SDS011;3848;42.016;23.098;2022-11-20T03:53:55;43.37;;;41.00;;
7613;SDS011;3848;42.016;23.098;2022-11-20T03:56:23;43.17;;;40.50;;
7613;SDS011;3848;42.016;23.098;2022-11-20T03:58:52;41.93;;;39.70;;
7613;SDS011;3848;42.016;23.098;2022-11-20T04:01:19;42.47;;;40.17;;
7613;SDS011;3848;42.016;23.098;2022-11-20T04:03:47;44.23;;;41.60;;
7613;SDS011;3848;42.016;23.098;2022-11-20T04:06:15;44.07;;;41.77;;
7613;SDS011;3848;42.016;23.098;2022-11-20T04:08:44;43.23;;;40.83;;
7613;SDS011;3848;42.016;23.098;2022-11-20T04:11:12;44.93;;;42.53;;
7613;SDS011;3848;42.016;23.098;2022-11-20T04:13:40;42.83;;;40.50;;
7613;SDS011;3848;42.016;23.098;2022-11-20T04:16:07;43.17;;;40.67;;
7613;SDS011;3848;42.016;23.098;2022-11-20T04:18:35;44.20;;;41.67;;
7613;SDS011;3848;42.016;23.098;2022-11-20T04:21:02;44.93;;;42.40;;
7613;SDS011;3848;42.016;23.098;2022-11-20T04:23:30;42.87;;;40.47;;
7613;SDS011;3848;42.016;23.098;2022-11-20T04:26:02;43.53;;;41.07;;
7613;SDS011;3848;42.016;23.098;2022-11-20T04:28:30;43.97;;;41.43;;
7613;SDS011;3848;42.016;23.098;2022-11-20T04:31:04;43.60;;;41.00;;
7613;SDS011;3848;42.016;23.098;2022-11-20T04:33:32;42.23;;;39.97;;
7613;SDS011;3848;42.016;23.098;2022-11-20T04:36:00;44.17;;;41.50;;
7613;SDS011;3848;42.016;23.098;2022-11-20T04:38:28;44.73;;;42.20;;
7613;SDS011;3848;42.016;23.098;2022-11-20T04:40:58;43.00;;;40.60;;
7613;SDS011;3848;42.016;23.098;2022-11-20T04:43:26;44.97;;;42.03;;
7613;SDS011;3848;42.016;23.098;2022-11-20T04:45:54;44.53;;;42.10;;
7613;SDS011;3848;42.016;23.098;2022-11-20T04:48:22;45.77;;;42.97;;
7613;SDS011;3848;42.016;23.098;2022-11-20T04:50:49;45.20;;;42.70;;
7613;SDS011;3848;42.016;23.098;2022-11-20T04:53:17;43.80;;;41.10;;
7613;SDS011;3848;42.016;23.098;2022-11-20T04:55:44;43.80;;;41.47;;
7613;SDS011;3848;42.016;23.098;2022-11-20T04:58:12;44.37;;;41.73;;
7613;SDS011;3848;42.016;23.098;2022-11-20T05:00:40;43.17;;;40.87;;
7613;SDS011;3848;42.016;23.098;2022-11-20T05:03:07;43.90;;;41.50;;
7613;SDS011;3848;42.016;23.098;2022-11-20T05:05:34;43.23;;;40.93;;
7613;SDS011;3848;42.016;23.098;2022-11-20T05:08:01;44.83;;;42.07;;
7613;SDS011;3848;42.016;23.098;2022-11-20T05:10:28;42.87;;;40.50;;
7613;SDS011;3848;42.016;23.098;2022-11-20T05:12:54;42.57;;;40.37;;
7613;SDS011;3848;42.016;23.098;2022-11-20T05:15:23;44.13;;;41.73;;
7613;SDS011;3848;42.016;23.098;2022-11-20T05:17:51;44.27;;;41.47;;
7613;SDS011;3848;42.016;23.098;2022-11-20T05:20:18;46.23;;;43.47;;
7613;SDS011;3848;42.016;23.098;2022-11-20T05:22:46;43.73;;;40.80;;
7613;SDS011;3848;42.016;23.098;2022-11-20T05:25:12;43.90;;;41.33;;
7613;SDS011;3848;42.016;23.098;2022-11-20T05:27:39;44.13;;;41.67;;
7613;SDS011;3848;42.016;23.098;2022-11-20T05:30:06;42.10;;;39.80;;
7613;SDS011;3848;42.016;23.098;2022-11-20T05:32:34;43.80;;;41.50;;
7613;SDS011;3848;42.016;23.098;2022-11-20T05:35:02;43.50;;;40.90;;
7613;SDS011;3848;42.016;23.098;2022-11-20T05:37:30;41.53;;;39.30;;
7613;SDS011;3848;42.016;23.098;2022-11-20T05:39:56;42.53;;;39.80;;
7613;SDS011;3848;42.016;23.098;2022-11-20T05:42:23;43.70;;;41.10;;
7613;SDS011;3848;42.016;23.098;2022-11-20T05:44:56;41.73;;;39.53;;
7613;SDS011;3848;42.016;23.098;2022-11-20T05:47:23;41.73;;;39.47;;
7613;SDS011;3848;42.016;23.098;2022-11-20T05:49:49;42.77;;;40.17;;
7613;SDS011;3848;42.016;23.098;2022-11-20T05:52:18;40.53;;;38.27;;
7613;SDS011;3848;42.016;23.098;2022-11-20T05:54:45;39.60;;;37.40;;
7613;SDS011;3848;42.016;23.098;2022-11-20T05:57:11;39.93;;;37.73;;
7613;SDS011;3848;42.016;23.098;2022-11-20T05:59:38;38.73;;;36.80;;
7613;SDS011;3848;42.016;23.098;2022-11-20T06:02:05;41.50;;;39.10;;
7613;SDS011;3848;42.016;23.098;2022-11-20T06:04:31;41.23;;;38.70;;
7613;SDS011;3848;42.016;23.098;2022-11-20T06:06:58;41.23;;;38.70;;
7613;SDS011;3848;42.016;23.098;2022-11-20T06:09:26;39.77;;;37.63;;
7613;SDS011;3848;42.016;23.098;2022-11-20T06:11:53;41.23;;;38.83;;
7613;SDS011;3848;42.016;23.098;2022-11-20T06:14:20;39.47;;;37.20;;
7613;SDS011;3848;42.016;23.098;2022-11-20T06:16:47;38.30;;;36.27;;
7613;SDS011;3848;42.016;23.098;2022-11-20T06:19:13;39.70;;;37.30;;
7613;SDS011;3848;42.016;23.098;2022-11-20T06:21:41;39.10;;;37.00;;
7613;SDS011;3848;42.016;23.098;2022-11-20T06:24:08;41.13;;;38.73;;
7613;SDS011;3848;42.016;23.098;2022-11-20T06:26:37;41.03;;;38.83;;
7613;SDS011;3848;42.016;23.098;2022-11-20T06:29:04;43.23;;;40.83;;
7613;SDS011;3848;42.016;23.098;2022-11-20T06:31:31;44.40;;;41.90;;
7613;SDS011;3848;42.016;23.098;2022-11-20T06:34:00;48.00;;;45.30;;
7613;SDS011;3848;42.016;23.098;2022-11-20T06:36:27;45.57;;;43.07;;
7613;SDS011;3848;42.016;23.098;2022-11-20T06:38:53;45.40;;;42.90;;
7613;SDS011;3848;42.016;23.098;2022-11-20T06:41:20;47.17;;;44.43;;
7613;SDS011;3848;42.016;23.098;2022-11-20T06:43:49;52.17;;;49.10;;
7613;SDS011;3848;42.016;23.098;2022-11-20T06:46:17;52.10;;;49.27;;
7613;SDS011;3848;42.016;23.098;2022-11-20T06:48:45;50.93;;;48.13;;
7613;SDS011;3848;42.016;23.098;2022-11-20T06:51:12;53.23;;;50.27;;
7613;SDS011;3848;42.016;23.098;2022-11-20T06:53:39;54.63;;;51.43;;
7613;SDS011;3848;42.016;23.098;2022-11-20T06:56:06;56.90;;;53.20;;
7613;SDS011;3848;42.016;23.098;2022-11-20T06:58:33;52.23;;;49.43;;
7613;SDS011;3848;42.016;23.098;2022-11-20T07:01:03;50.63;;;47.80;;
7613;SDS011;3848;42.016;23.098;2022-11-20T07:03:32;49.83;;;47.13;;
7613;SDS011;3848;42.016;23.098;2022-11-20T07:06:00;48.87;;;46.03;;
7613;SDS011;3848;42.016;23.098;2022-11-20T07:08:27;48.27;;;45.53;;
7613;SDS011;3848;42.016;23.098;2022-11-20T07:10:57;49.47;;;46.63;;
7613;SDS011;3848;42.016;23.098;2022-11-20T07:13:25;48.50;;;45.70;;
7613;SDS011;3848;42.016;23.098;2022-11-20T07:15:52;48.20;;;45.37;;
7613;SDS011;3848;42.016;23.098;2022-11-20T07:18:20;47.77;;;44.90;;
7613;SDS011;3848;42.016;23.098;2022-11-20T07:20:47;48.73;;;45.70;;
7613;SDS011;3848;42.016;23.098;2022-11-20T07:23:14;48.17;;;45.33;;
7613;SDS011;3848;42.016;23.098;2022-11-20T07:25:41;47.10;;;44.37;;
7613;SDS011;3848;42.016;23.098;2022-11-20T07:28:08;47.53;;;44.70;;
7613;SDS011;3848;42.016;23.098;2022-11-20T07:30:35;44.80;;;42.33;;
7613;SDS011;3848;42.016;23.098;2022-11-20T07:33:02;44.70;;;42.10;;
7613;SDS011;3848;42.016;23.098;2022-11-20T07:35:31;46.13;;;43.07;;
7613;SDS011;3848;42.016;23.098;2022-11-20T07:37:58;44.67;;;41.80;;
7613;SDS011;3848;42.016;23.098;2022-11-20T07:40:24;44.17;;;41.63;;
7613;SDS011;3848;42.016;23.098;2022-11-20T07:42:51;42.33;;;39.83;;
7613;SDS011;3848;42.016;23.098;2022-11-20T07:45:19;42.37;;;39.97;;
7613;SDS011;3848;42.016;23.098;2022-11-20T07:47:47;44.47;;;40.60;;
7613;SDS011;3848;42.016;23.098;2022-11-20T07:50:14;43.83;;;41.17;;
7613;SDS011;3848;42.016;23.098;2022-11-20T07:52:43;42.13;;;39.20;;
7613;SDS011;3848;42.016;23.098;2022-11-20T07:55:09;41.00;;;38.53;;
7613;SDS011;3848;42.016;23.098;2022-11-20T07:57:37;40.57;;;38.17;;
7613;SDS011;3848;42.016;23.098;2022-11-20T08:00:04;41.37;;;39.07;;
7613;SDS011;3848;42.016;23.098;2022-11-20T08:02:33;40.90;;;38.60;;
7613;SDS011;3848;42.016;23.098;2022-11-20T08:05:02;41.00;;;38.80;;
7613;SDS011;3848;42.016;23.098;2022-11-20T08:07:34;41.73;;;38.83;;
7613;SDS011;3848;42.016;23.098;2022-11-20T08:10:03;40.17;;;37.73;;
7613;SDS011;3848;42.016;23.098;2022-11-20T08:12:31;43.50;;;41.00;;
7613;SDS011;3848;42.016;23.098;2022-11-20T08:15:15;43.60;;;41.20;;
7613;SDS011;3848;42.016;23.098;2022-11-20T08:17:41;41.30;;;39.07;;
7613;SDS011;3848;42.016;23.098;2022-11-20T08:20:09;42.30;;;39.70;;
7613;SDS011;3848;42.016;23.098;2022-11-20T08:22:36;42.63;;;40.00;;
7613;SDS011;3848;42.016;23.098;2022-11-20T08:25:04;40.77;;;38.47;;
7613;SDS011;3848;42.016;23.098;2022-11-20T08:27:31;41.73;;;38.83;;
7613;SDS011;3848;42.016;23.098;2022-11-20T08:29:58;41.40;;;39.10;;
7613;SDS011;3848;42.016;23.098;2022-11-20T08:32:25;42.10;;;39.63;;
7613;SDS011;3848;42.016;23.098;2022-11-20T08:34:52;43.73;;;41.00;;
7613;SDS011;3848;42.016;23.098;2022-11-20T08:37:18;46.27;;;43.20;;
7613;SDS011;3848;42.016;23.098;2022-11-20T08:39:45;45.53;;;42.73;;
7613;SDS011;3848;42.016;23.098;2022-11-20T08:42:13;45.57;;;42.73;;
7613;SDS011;3848;42.016;23.098;2022-11-20T08:44:40;44.53;;;41.50;;
7613;SDS011;3848;42.016;23.098;2022-11-20T08:47:08;45.33;;;42.03;;
7613;SDS011;3848;42.016;23.098;2022-11-20T08:49:34;44.57;;;41.60;;
7613;SDS011;3848;42.016;23.098;2022-11-20T08:52:01;42.03;;;39.10;;
7613;SDS011;3848;42.016;23.098;2022-11-20T08:54:28;43.20;;;40.70;;
7613;SDS011;3848;42.016;23.098;2022-11-20T08:56:55;42.90;;;40.10;;
7613;SDS011;3848;42.016;23.098;2022-11-20T08:59:23;44.17;;;41.63;;
7613;SDS011;3848;42.016;23.098;2022-11-20T09:01:50;45.33;;;42.30;;
7613;SDS011;3848;42.016;23.098;2022-11-20T09:04:17;44.67;;;41.67;;
7613;SDS011;3848;42.016;23.098;2022-11-20T09:06:43;44.20;;;41.43;;
7613;SDS011;3848;42.016;23.098;2022-11-20T09:09:10;42.13;;;39.83;;
7613;SDS011;3848;42.016;23.098;2022-11-20T09:11:37;42.30;;;39.90;;
7613;SDS011;3848;42.016;23.098;2022-11-20T09:14:04;44.47;;;41.50;;
7613;SDS011;3848;42.016;23.098;2022-11-20T09:16:32;43.33;;;40.73;;
7613;SDS011;3848;42.016;23.098;2022-11-20T09:18:59;42.70;;;40.27;;
7613;SDS011;3848;42.016;23.098;2022-11-20T09:21:25;42.50;;;40.07;;
7613;SDS011;3848;42.016;23.098;2022-11-20T09:23:52;42.63;;;39.97;;
7613;SDS011;3848;42.016;23.098;2022-11-20T09:26:19;42.67;;;39.73;;
7613;SDS011;3848;42.016;23.098;2022-11-20T09:28:46;41.30;;;38.73;;
7613;SDS011;3848;42.016;23.098;2022-11-20T09:31:16;44.77;;;41.40;;
7613;SDS011;3848;42.016;23.098;2022-11-20T09:33:49;43.03;;;40.27;;
7613;SDS011;3848;42.016;23.098;2022-11-20T09:36:16;42.30;;;39.10;;
7613;SDS011;3848;42.016;23.098;2022-11-20T09:38:43;40.93;;;38.70;;
7613;SDS011;3848;42.016;23.098;2022-11-20T09:41:15;40.10;;;37.90;;
7613;SDS011;3848;42.016;23.098;2022-11-20T09:43:58;38.97;;;36.67;;
7613;SDS011;3848;42.016;23.098;2022-11-20T09:46:35;41.97;;;39.37;;
7613;SDS011;3848;42.016;23.098;2022-11-20T09:49:16;40.17;;;37.53;;
7613;SDS011;3848;42.016;23.098;2022-11-20T09:51:53;38.90;;;36.60;;
7613;SDS011;3848;42.016;23.098;2022-11-20T09:54:26;40.10;;;37.83;;
7613;SDS011;3848;42.016;23.098;2022-11-20T09:56:57;39.33;;;36.97;;
7613;SDS011;3848;42.016;23.098;2022-11-20T09:59:29;39.40;;;37.27;;
7613;SDS011;3848;42.016;23.098;2022-11-20T10:02:00;40.20;;;37.60;;
7613;SDS011;3848;42.016;23.098;2022-11-20T10:04:34;39.80;;;37.40;;
7613;SDS011;3848;42.016;23.098;2022-11-20T10:07:05;41.23;;;38.90;;
7613;SDS011;3848;42.016;23.098;2022-11-20T10:09:40;39.87;;;36.93;;
7613;SDS011;3848;42.016;23.098;2022-11-20T10:12:12;40.10;;;37.73;;
7613;SDS011;3848;42.016;23.098;2022-11-20T10:14:49;42.40;;;39.37;;
7613;SDS011;3848;42.016;23.098;2022-11-20T10:17:29;41.40;;;38.37;;
7613;SDS011;3848;42.016;23.098;2022-11-20T10:20:16;41.90;;;39.57;;
7613;SDS011;3848;42.016;23.098;2022-11-20T10:22:52;48.67;;;43.87;;
7613;SDS011;3848;42.016;23.098;2022-11-20T10:25:32;42.27;;;39.77;;
7613;SDS011;3848;42.016;23.098;2022-11-20T10:28:10;43.60;;;41.03;;
7613;SDS011;3848;42.016;23.098;2022-11-20T10:30:50;44.53;;;41.43;;
7613;SDS011;3848;42.016;23.098;2022-11-20T10:33:22;42.73;;;39.93;;
7613;SDS011;3848;42.016;23.098;2022-11-20T10:35:54;42.67;;;40.33;;
7613;SDS011;3848;42.016;23.098;2022-11-20T10:38:30;42.43;;;39.33;;
7613;SDS011;3848;42.016;23.098;2022-11-20T10:41:03;42.70;;;40.10;;
7613;SDS011;3848;42.016;23.098;2022-11-20T10:43:52;43.87;;;41.00;;
7613;SDS011;3848;42.016;23.098;2022-11-20T10:46:26;44.30;;;41.07;;
7613;SDS011;3848;42.016;23.098;2022-11-20T10:49:02;43.90;;;40.97;;
7613;SDS011;3848;42.016;23.098;2022-11-20T10:51:40;44.23;;;41.63;;
7613;SDS011;3848;42.016;23.098;2022-11-20T10:54:17;44.63;;;40.83;;
7613;SDS011;3848;42.016;23.098;2022-11-20T10:56:50;42.57;;;40.10;;
7613;SDS011;3848;42.016;23.098;2022-11-20T11:02:16;50.40;;;45.97;;
7613;SDS011;3848;42.016;23.098;2022-11-20T11:04:45;45.43;;;42.10;;
7613;SDS011;3848;42.016;23.098;2022-11-20T11:07:15;41.23;;;38.93;;
7613;SDS011;3848;42.016;23.098;2022-11-20T11:09:46;44.83;;;41.70;;
7613;SDS011;3848;42.016;23.098;2022-11-20T11:12:15;43.93;;;40.77;;
7613;SDS011;3848;42.016;23.098;2022-11-20T11:14:45;48.53;;;44.30;;
7613;SDS011;3848;42.016;23.098;2022-11-20T11:17:22;44.73;;;41.77;;
7613;SDS011;3848;42.016;23.098;2022-11-20T11:20:02;45.33;;;41.93;;
7613;SDS011;3848;42.016;23.098;2022-11-20T11:22:32;43.63;;;41.10;;
7613;SDS011;3848;42.016;23.098;2022-11-20T11:25:01;45.07;;;41.60;;
7613;SDS011;3848;42.016;23.098;2022-11-20T11:27:28;45.73;;;42.20;;
7613;SDS011;3848;42.016;23.098;2022-11-20T11:30:03;45.87;;;43.20;;
7613;SDS011;3848;42.016;23.098;2022-11-20T11:32:39;53.47;;;49.00;;
7613;SDS011;3848;42.016;23.098;2022-11-20T11:35:06;47.03;;;44.07;;
7613;SDS011;3848;42.016;23.098;2022-11-20T11:37:47;49.73;;;46.80;;
7613;SDS011;3848;42.016;23.098;2022-11-20T11:40:14;49.57;;;46.53;;
7613;SDS011;3848;42.016;23.098;2022-11-20T11:42:42;49.53;;;46.70;;
7613;SDS011;3848;42.016;23.098;2022-11-20T11:45:11;51.97;;;48.67;;
7613;SDS011;3848;42.016;23.098;2022-11-20T11:47:43;53.83;;;50.20;;
7613;SDS011;3848;42.016;23.098;2022-11-20T11:50:16;56.87;;;51.57;;
7613;SDS011;3848;42.016;23.098;2022-11-20T11:52:48;55.23;;;51.20;;
7613;SDS011;3848;42.016;23.098;2022-11-20T11:55:25;55.07;;;51.83;;
7613;SDS011;3848;42.016;23.098;2022-11-20T11:57:57;56.40;;;52.23;;
7613;SDS011;3848;42.016;23.098;2022-11-20T12:00:35;60.63;;;57.07;;
7613;SDS011;3848;42.016;23.098;2022-11-20T12:03:09;66.07;;;61.20;;
7613;SDS011;3848;42.016;23.098;2022-11-20T12:05:42;66.23;;;62.10;;
7613;SDS011;3848;42.016;23.098;2022-11-20T12:08:15;65.27;;;61.30;;
7613;SDS011;3848;42.016;23.098;2022-11-20T12:10:48;63.67;;;59.77;;
7613;SDS011;3848;42.016;23.098;2022-11-20T12:13:29;68.37;;;63.77;;
7613;SDS011;3848;42.016;23.098;2022-11-20T12:16:03;65.77;;;62.03;;
7613;SDS011;3848;42.016;23.098;2022-11-20T12:18:30;66.87;;;62.00;;
7613;SDS011;3848;42.016;23.098;2022-11-20T12:21:02;72.93;;;67.37;;
7613;SDS011;3848;42.016;23.098;2022-11-20T12:23:44;64.60;;;60.50;;
7613;SDS011;3848;42.016;23.098;2022-11-20T12:26:19;66.07;;;59.93;;
7613;SDS011;3848;42.016;23.098;2022-11-20T12:28:58;64.80;;;60.07;;
7613;SDS011;3848;42.016;23.098;2022-11-20T12:31:40;63.73;;;59.60;;
7613;SDS011;3848;42.016;23.098;2022-11-20T12:34:40;62.70;;;59.13;;
7613;SDS011;3848;42.016;23.098;2022-11-20T12:37:16;66.60;;;61.47;;
7613;SDS011;3848;42.016;23.098;2022-11-20T12:40:00;65.97;;;61.77;;
7613;SDS011;3848;42.016;23.098;2022-11-20T12:42:44;66.20;;;62.40;;
7613;SDS011;3848;42.016;23.098;2022-11-20T12:48:40;66.43;;;61.83;;
7613;SDS011;3848;42.016;23.098;2022-11-20T12:51:27;63.37;;;59.20;;
7613;SDS011;3848;42.016;23.098;2022-11-20T12:54:14;60.43;;;56.87;;
7613;SDS011;3848;42.016;23.098;2022-11-20T12:56:57;62.13;;;57.40;;
7613;SDS011;3848;42.016;23.098;2022-11-20T12:59:33;56.80;;;53.50;;
7613;SDS011;3848;42.016;23.098;2022-11-20T13:02:23;56.93;;;53.17;;
7613;SDS011;3848;42.016;23.098;2022-11-20T13:05:00;56.70;;;52.87;;
7613;SDS011;3848;42.016;23.098;2022-11-20T13:07:37;55.83;;;52.43;;
7613;SDS011;3848;42.016;23.098;2022-11-20T13:10:04;55.33;;;52.00;;
7613;SDS011;3848;42.016;23.098;2022-11-20T13:12:45;53.83;;;50.77;;
7613;SDS011;3848;42.016;23.098;2022-11-20T13:15:18;56.27;;;51.90;;
7613;SDS011;3848;42.016;23.098;2022-11-20T13:17:59;53.47;;;49.90;;
7613;SDS011;3848;42.016;23.098;2022-11-20T13:20:27;50.37;;;47.50;;
7613;SDS011;3848;42.016;23.098;2022-11-20T13:22:56;48.73;;;45.93;;
7613;SDS011;3848;42.016;23.098;2022-11-20T13:25:24;46.57;;;43.70;;
7613;SDS011;3848;42.016;23.098;2022-11-20T13:27:54;44.33;;;41.97;;
7613;SDS011;3848;42.016;23.098;2022-11-20T13:30:22;44.33;;;41.40;;
7613;SDS011;3848;42.016;23.098;2022-11-20T13:32:50;44.37;;;41.53;;
7613;SDS011;3848;42.016;23.098;2022-11-20T13:35:29;45.57;;;42.77;;
7613;SDS011;3848;42.016;23.098;2022-11-20T13:38:05;44.83;;;41.90;;
7613;SDS011;3848;42.016;23.098;2022-11-20T13:40:33;43.73;;;40.20;;
7613;SDS011;3848;42.016;23.098;2022-11-20T13:43:07;43.33;;;40.50;;
7613;SDS011;3848;42.016;23.098;2022-11-20T13:45:53;44.90;;;40.47;;
7613;SDS011;3848;42.016;23.098;2022-11-20T13:48:22;41.53;;;38.77;;
7613;SDS011;3848;42.016;23.098;2022-11-20T13:50:54;44.27;;;39.87;;
7613;SDS011;3848;42.016;23.098;2022-11-20T13:56:34;41.43;;;38.77;;
7613;SDS011;3848;42.016;23.098;2022-11-20T13:59:14;41.50;;;38.77;;
7613;SDS011;3848;42.016;23.098;2022-11-20T14:01:54;38.27;;;36.03;;
7613;SDS011;3848;42.016;23.098;2022-11-20T14:04:23;40.67;;;37.77;;
7613;SDS011;3848;42.016;23.098;2022-11-20T14:06:55;41.43;;;38.40;;
7613;SDS011;3848;42.016;23.098;2022-11-20T14:09:26;40.47;;;37.63;;
7613;SDS011;3848;42.016;23.098;2022-11-20T14:11:55;39.30;;;36.67;;
7613;SDS011;3848;42.016;23.098;2022-11-20T14:14:23;39.20;;;36.13;;
7613;SDS011;3848;42.016;23.098;2022-11-20T14:16:51;41.63;;;38.47;;
7613;SDS011;3848;42.016;23.098;2022-11-20T14:19:24;40.67;;;37.73;;
7613;SDS011;3848;42.016;23.098;2022-11-20T14:21:54;43.13;;;39.87;;
7613;SDS011;3848;42.016;23.098;2022-11-20T14:24:33;43.00;;;39.03;;
7613;SDS011;3848;42.016;23.098;2022-11-20T14:27:00;42.07;;;38.77;;
7613;SDS011;3848;42.016;23.098;2022-11-20T14:29:29;43.20;;;39.70;;
7613;SDS011;3848;42.016;23.098;2022-11-20T14:32:00;43.10;;;40.43;;
7613;SDS011;3848;42.016;23.098;2022-11-20T14:34:30;41.90;;;39.30;;
7613;SDS011;3848;42.016;23.098;2022-11-20T14:37:02;41.47;;;38.50;;
7613;SDS011;3848;42.016;23.098;2022-11-20T14:39:32;42.60;;;39.73;;
7613;SDS011;3848;42.016;23.098;2022-11-20T14:42:00;42.50;;;39.50;;
7613;SDS011;3848;42.016;23.098;2022-11-20T14:44:30;41.53;;;39.07;;
7613;SDS011;3848;42.016;23.098;2022-11-20T14:46:59;41.23;;;38.73;;
7613;SDS011;3848;42.016;23.098;2022-11-20T14:49:28;42.97;;;40.57;;
7613;SDS011;3848;42.016;23.098;2022-11-20T14:51:58;46.03;;;43.40;;
7613;SDS011;3848;42.016;23.098;2022-11-20T14:54:26;45.90;;;42.60;;
7613;SDS011;3848;42.016;23.098;2022-11-20T14:56:55;46.00;;;43.27;;
7613;SDS011;3848;42.016;23.098;2022-11-20T14:59:23;47.20;;;44.33;;
7613;SDS011;3848;42.016;23.098;2022-11-20T15:01:56;49.87;;;47.07;;